createdAt,value
2022-10-16T00:00:53.106Z,13.90
2022-10-16T00:06:02.035Z,13.80
2022-10-16T00:11:07.214Z,13.70
2022-10-16T00:16:12.102Z,13.60
2022-10-16T00:21:20.387Z,13.40
2022-10-16T00:26:24.047Z,13.20
2022-10-16T00:31:30.715Z,13.10
2022-10-16T00:36:35.442Z,13.10
2022-10-16T00:41:38.713Z,13.00
2022-10-16T00:46:44.427Z,12.90
2022-10-16T00:51:51.494Z,12.90
2022-10-16T00:56:56.803Z,12.80
2022-10-16T01:02:00.872Z,12.80
2022-10-16T01:07:13.560Z,12.80
2022-10-16T01:12:20.740Z,12.90
2022-10-16T01:17:30.645Z,12.90
2022-10-16T01:22:56.455Z,13.00
2022-10-16T01:28:04.931Z,13.00
2022-10-16T01:33:13.350Z,13.00
2022-10-16T01:38:21.350Z,13.10
2022-10-16T01:43:31.075Z,13.10
2022-10-16T01:48:36.415Z,13.00
2022-10-16T01:53:40.534Z,13.00
2022-10-16T01:58:49.811Z,13.10
2022-10-16T02:03:56.208Z,13.10
2022-10-16T02:09:01.666Z,13.10
2022-10-16T02:14:08.348Z,13.20
2022-10-16T02:19:12.448Z,13.20
2022-10-16T02:24:26.339Z,13.30
2022-10-16T02:29:31.145Z,13.30
2022-10-16T02:34:35.403Z,13.30
2022-10-16T02:39:39.634Z,13.30
2022-10-16T02:44:44.594Z,13.30
2022-10-16T02:49:47.852Z,13.20
2022-10-16T02:54:51.160Z,13.30
2022-10-16T02:59:56.063Z,13.20
2022-10-16T03:04:59.310Z,13.20
2022-10-16T03:10:03.107Z,13.20
2022-10-16T03:15:08.884Z,13.10
2022-10-16T03:20:12.596Z,13.10
2022-10-16T03:25:15.925Z,13.10
2022-10-16T03:30:20.614Z,13.10
2022-10-16T03:35:24.080Z,13.10
2022-10-16T03:40:27.764Z,13.10
2022-10-16T03:45:32.471Z,13.00
2022-10-16T03:50:35.948Z,12.90
2022-10-16T03:55:39.361Z,12.90
2022-10-16T04:00:44.552Z,12.80
2022-10-16T04:05:47.787Z,12.70
2022-10-16T04:10:51.310Z,12.70
2022-10-16T04:15:55.997Z,12.70
2022-10-16T04:20:59.201Z,12.70
2022-10-16T04:26:02.867Z,12.60
2022-10-16T04:31:08.246Z,12.60
2022-10-16T04:36:11.834Z,12.70
2022-10-16T04:41:15.079Z,12.60
2022-10-16T04:46:20.020Z,12.60
2022-10-16T04:51:23.220Z,12.60
2022-10-16T04:56:26.733Z,12.60
2022-10-16T05:01:31.805Z,12.60
2022-10-16T05:06:35.121Z,12.60
2022-10-16T05:11:38.357Z,12.60
2022-10-16T05:16:43.027Z,12.60
2022-10-16T05:21:46.217Z,12.60
2022-10-16T05:26:49.466Z,12.50
2022-10-16T05:31:55.030Z,12.40
2022-10-16T05:36:58.743Z,12.40
2022-10-16T05:42:02.057Z,12.30
2022-10-16T05:47:06.821Z,12.20
2022-10-16T05:52:10.094Z,12.20
2022-10-16T05:57:13.282Z,12.30
2022-10-16T06:02:19.912Z,12.50
2022-10-16T06:07:23.520Z,12.70
2022-10-16T06:12:27.164Z,12.90
2022-10-16T06:17:33.512Z,12.90
2022-10-16T06:22:37.632Z,13.00
2022-10-16T06:27:42.377Z,13.20
2022-10-16T06:32:47.119Z,13.30
2022-10-16T06:38:00.002Z,13.50
2022-10-16T06:43:03.307Z,14.00
2022-10-16T06:48:07.997Z,14.70
2022-10-16T06:53:11.175Z,15.20
2022-10-16T06:58:14.351Z,15.40
2022-10-16T07:03:22.979Z,15.40
2022-10-16T07:08:26.243Z,15.40
2022-10-16T07:13:29.695Z,15.40
2022-10-16T07:18:35.187Z,15.50
2022-10-16T07:23:39.060Z,15.60
2022-10-16T07:28:46.122Z,15.70
2022-10-16T07:33:51.954Z,15.90
2022-10-16T07:38:58.664Z,16.20
2022-10-16T07:44:03.627Z,16.40
2022-10-16T07:49:08.350Z,16.70
2022-10-16T07:54:12.147Z,17.10
2022-10-16T07:59:15.449Z,17.40
2022-10-16T08:04:20.044Z,17.80
2022-10-16T08:09:23.424Z,18.20
2022-10-16T08:14:26.678Z,18.10
2022-10-16T08:19:33.094Z,18.00
2022-10-16T08:24:37.967Z,18.10
2022-10-16T08:29:41.177Z,18.70
2022-10-16T08:34:49.555Z,19.50
2022-10-16T08:39:53.336Z,20.00
2022-10-16T08:45:25.617Z,19.90
2022-10-16T08:50:33.007Z,19.60
2022-10-16T08:55:43.265Z,19.40
2022-10-16T09:00:49.248Z,19.50
2022-10-16T09:06:12.815Z,19.60
2022-10-16T09:11:28.379Z,20.00
2022-10-16T09:16:38.133Z,20.30
2022-10-16T09:21:44.789Z,21.10
2022-10-16T09:26:48.583Z,21.50
2022-10-16T09:31:52.290Z,21.60
2022-10-16T09:36:58.462Z,21.10
2022-10-16T09:42:03.085Z,20.80
2022-10-16T09:47:07.793Z,21.30
2022-10-16T09:52:16.695Z,21.30
2022-10-16T10:02:48.019Z,20.80
2022-10-16T10:07:58.448Z,20.40
2022-10-16T10:13:02.188Z,20.30
2022-10-16T10:18:18.844Z,20.30
2022-10-16T10:23:25.637Z,20.00
2022-10-16T10:28:48.322Z,21.00
2022-10-16T10:34:00.923Z,22.60
2022-10-16T10:39:10.334Z,23.90
2022-10-16T10:44:21.395Z,24.00
2022-10-16T10:49:43.223Z,23.80
2022-10-16T10:54:56.533Z,23.20
2022-10-16T11:00:23.543Z,23.00
2022-10-16T11:05:40.624Z,23.20
2022-10-16T11:10:52.066Z,23.30
2022-10-16T11:15:59.571Z,23.30
2022-10-16T11:21:07.909Z,23.30
2022-10-16T11:31:51.641Z,23.40
2022-10-16T11:37:00.665Z,23.30
2022-10-16T11:42:12.957Z,23.10
2022-10-16T11:47:53.906Z,23.20
2022-10-16T11:52:57.808Z,22.90
2022-10-16T11:58:08.285Z,23.10
2022-10-16T12:03:20.706Z,23.40
2022-10-16T12:08:24.527Z,23.60
2022-10-16T12:13:34.532Z,23.50
2022-10-16T12:18:37.785Z,23.60
2022-10-16T12:23:49.787Z,23.70
2022-10-16T12:28:55.934Z,23.30
2022-10-16T12:34:03.124Z,22.60
2022-10-16T12:39:06.817Z,22.30
2022-10-16T12:44:27.468Z,22.40
2022-10-16T12:49:39.565Z,22.30
2022-10-16T12:54:44.573Z,22.40
2022-10-16T12:59:56.236Z,22.80
2022-10-16T13:05:27.941Z,23.10
2022-10-16T13:10:41.185Z,23.20
2022-10-16T13:16:02.927Z,23.30
2022-10-16T13:21:16.931Z,23.40
2022-10-16T13:26:31.428Z,23.40
2022-10-16T13:31:36.282Z,23.40
2022-10-16T13:36:47.011Z,23.60
2022-10-16T13:42:06.476Z,23.60
2022-10-16T13:47:22.310Z,23.60
2022-10-16T13:52:26.223Z,23.60
2022-10-16T13:57:29.683Z,23.50
2022-10-16T14:02:39.150Z,23.20
2022-10-16T14:07:43.113Z,22.90
2022-10-16T14:12:46.934Z,22.80
2022-10-16T14:17:58.160Z,22.80
2022-10-16T14:23:03.403Z,22.90
2022-10-16T14:28:17.903Z,23.00
2022-10-16T14:33:26.412Z,23.00
2022-10-16T14:38:30.403Z,23.00
2022-10-16T14:43:39.408Z,23.00
2022-10-16T14:48:47.105Z,22.80
2022-10-16T14:53:53.048Z,22.50
2022-10-16T14:58:58.312Z,22.60
2022-10-16T15:04:04.263Z,22.70
2022-10-16T15:09:07.775Z,22.70
2022-10-16T15:14:17.144Z,22.50
2022-10-16T15:19:21.894Z,22.40
2022-10-16T15:24:25.421Z,22.40
2022-10-16T15:29:28.799Z,22.40
2022-10-16T15:34:33.555Z,22.60
2022-10-16T15:39:40.548Z,22.40
2022-10-16T15:44:44.823Z,22.20
2022-10-16T15:49:50.250Z,21.80
2022-10-16T15:54:54.400Z,21.40
2022-10-16T15:59:58.001Z,21.10
2022-10-16T16:05:05.596Z,20.90
2022-10-16T16:10:12.599Z,20.50
2022-10-16T16:15:16.150Z,20.10
2022-10-16T16:20:21.180Z,19.60
2022-10-16T16:25:25.652Z,19.10
2022-10-16T16:30:29.011Z,18.60
2022-10-16T16:35:33.819Z,18.20
2022-10-16T16:40:38.215Z,17.80
2022-10-16T16:45:49.482Z,17.60
2022-10-16T16:50:55.303Z,17.30
2022-10-16T16:56:04.767Z,17.10
2022-10-16T17:01:19.428Z,16.70
2022-10-16T17:06:26.308Z,16.60
2022-10-16T17:11:30.255Z,16.40
2022-10-16T17:16:36.700Z,16.30
2022-10-16T17:21:41.750Z,16.30
2022-10-16T17:26:49.342Z,16.40
2022-10-16T17:31:52.716Z,16.30
2022-10-16T17:36:57.583Z,16.10
2022-10-16T17:42:01.181Z,16.00
2022-10-16T17:47:04.637Z,16.00
2022-10-16T17:52:09.533Z,15.80
2022-10-16T17:57:13.818Z,15.70
2022-10-16T18:02:18.464Z,15.60
2022-10-16T18:07:23.335Z,15.50
2022-10-16T18:12:26.942Z,15.30
2022-10-16T18:17:31.673Z,15.20
2022-10-16T18:22:37.081Z,15.10
2022-10-16T18:27:40.438Z,14.90
2022-10-16T18:32:43.786Z,14.70
2022-10-16T18:37:48.495Z,14.70
2022-10-16T18:42:53.344Z,14.60
2022-10-16T18:47:56.784Z,14.50
2022-10-16T18:58:29.554Z,14.20
2022-10-16T19:03:34.383Z,14.10
2022-10-16T19:08:40.015Z,13.90
2022-10-16T19:13:43.929Z,13.80
2022-10-16T19:18:47.312Z,13.70
2022-10-16T19:23:54.965Z,13.60
2022-10-16T19:28:59.562Z,13.60
2022-10-16T19:34:04.460Z,13.50
2022-10-16T19:39:12.829Z,13.40
2022-10-16T19:44:17.945Z,13.60
2022-10-16T19:49:22.125Z,13.60
2022-10-16T19:54:27.479Z,13.60
2022-10-16T19:59:30.789Z,13.50
2022-10-16T20:04:34.179Z,13.50
2022-10-16T20:09:39.132Z,13.40
2022-10-16T20:14:42.513Z,13.40
2022-10-16T20:19:45.869Z,13.30
2022-10-16T20:24:50.583Z,13.30
2022-10-16T20:29:53.916Z,13.30
2022-10-16T20:40:25.677Z,13.10
2022-10-16T20:45:29.088Z,13.00
2022-10-16T20:50:33.276Z,12.90
2022-10-16T20:55:39.126Z,12.80
2022-10-16T21:00:42.345Z,12.80
2022-10-16T21:05:45.786Z,12.70
2022-10-16T21:10:51.471Z,12.70
2022-10-16T21:15:54.993Z,12.70
2022-10-16T21:20:58.308Z,12.80
2022-10-16T21:26:03.253Z,12.80
2022-10-16T21:31:13.093Z,12.80
2022-10-16T21:36:18.815Z,12.80
2022-10-16T21:41:26.509Z,12.80
2022-10-16T21:46:32.811Z,12.60
2022-10-16T21:51:38.862Z,12.60
2022-10-16T21:56:43.837Z,12.40
2022-10-16T22:01:47.482Z,12.30
2022-10-16T22:06:50.932Z,12.40
2022-10-16T22:11:55.548Z,12.40
2022-10-16T22:16:58.850Z,12.30
2022-10-16T22:22:02.180Z,12.30
2022-10-16T22:27:06.947Z,12.20
2022-10-16T22:32:10.234Z,12.20
2022-10-16T22:37:13.724Z,12.10
2022-10-16T22:42:18.407Z,12.00
2022-10-16T22:47:21.814Z,11.90
2022-10-16T22:52:25.419Z,11.70
2022-10-16T22:57:30.423Z,11.60
2022-10-16T23:02:33.742Z,11.50
2022-10-16T23:07:37.178Z,11.60
2022-10-16T23:12:41.812Z,11.60
2022-10-16T23:17:45.115Z,11.70
2022-10-16T23:22:48.411Z,11.60
2022-10-16T23:27:55.121Z,11.60
2022-10-16T23:32:58.362Z,11.70
2022-10-16T23:38:01.562Z,11.70
2022-10-16T23:43:06.219Z,11.50
2022-10-16T23:48:09.583Z,11.40
2022-10-16T23:53:12.988Z,11.40
2022-10-16T23:58:17.891Z,11.30
